Time;durP1;ratioP1;P1;durP2;ratioP2;P2;SDS_P1;SDS_P2;PMS_P1;PMS_P2;Temp;Humidity;BMP_temperature;BMP_pressure;BME280_temperature;BME280_humidity;BME280_pressure;Samples;Min_cycle;Max_cycle;Signal;HPM_P1;HPM_P2
2022/09/12 00:00:14;;;;;;;8.52;6.47;;;15.30;99.90;;;;;;5047053;28;20103;-77
2022/09/12 00:02:40;;;;;;;7.13;5.20;;;14.90;99.90;;;;;;5052463;28;20496;-78
2022/09/12 00:05:06;;;;;;;6.10;4.85;;;14.90;99.90;;;;;;5027956;28;20104;-77
2022/09/12 00:07:32;;;;;;;7.72;4.55;;;14.90;99.90;;;;;;5045214;28;20049;-77
2022/09/12 00:09:58;;;;;;;6.30;4.90;;;15.00;99.90;;;;;;5057618;28;20399;-77
2022/09/12 00:12:32;;;;;;;9.98;5.93;;;15.10;99.90;;;;;;5042121;28;20045;-78
2022/09/12 00:14:58;;;;;;;9.57;5.68;;;14.80;99.90;;;;;;5038919;28;20508;-78
2022/09/12 00:17:23;;;;;;;10.05;6.80;;;14.90;99.90;;;;;;5036579;28;20126;-78
2022/09/12 00:19:49;;;;;;;9.85;7.10;;;14.70;99.90;;;;;;5032942;28;20037;-78
2022/09/12 00:22:15;;;;;;;10.55;7.38;;;14.80;99.90;;;;;;5042771;28;20123;-78
2022/09/12 00:24:40;;;;;;;8.82;7.00;;;14.70;99.90;;;;;;5036173;28;20033;-78
2022/09/12 00:27:14;;;;;;;9.52;7.20;;;15.00;99.90;;;;;;5031521;28;20068;-78
2022/09/12 00:29:44;;;;;;;6.95;5.63;;;14.70;99.90;;;;;;5028855;28;20045;-78
2022/09/12 00:32:09;;;;;;;7.22;4.93;;;14.80;99.90;;;;;;5039452;28;20044;-78
2022/09/12 00:35:02;;;;;;;8.27;5.50;;;14.80;99.90;;;;;;5033765;28;20568;-78
2022/09/12 00:37:29;;;;;;;7.30;4.90;;;14.60;99.90;;;;;;5024590;28;20459;-78
2022/09/12 00:39:55;;;;;;;7.93;5.10;;;14.90;99.90;;;;;;5018638;28;20501;-78
2022/09/12 00:42:21;;;;;;;5.95;4.65;;;15.10;99.90;;;;;;5016168;28;20030;-78
2022/09/12 00:44:49;;;;;;;8.68;5.55;;;14.60;99.90;;;;;;5020804;28;20072;-78
2022/09/12 00:47:18;;;;;;;7.28;5.32;;;14.60;99.90;;;;;;5000008;28;20034;-77
2022/09/12 00:50:10;;;;;;;9.20;6.03;;;14.50;99.90;;;;;;5020250;28;20411;-77
2022/09/12 00:52:36;;;;;;;;;;;14.50;99.90;;;;;;5026756;28;20042;-77
2022/09/12 00:55:16;;;;;;;11.93;6.65;;;14.50;99.90;;;;;;5013476;28;19917;-78
2022/09/12 00:57:54;;;;;;;7.15;4.43;;;14.50;99.90;;;;;;5023182;28;20041;-78
2022/09/12 01:00:22;;;;;;;6.18;4.30;;;14.40;99.90;;;;;;4996853;28;20037;-77
2022/09/12 01:03:01;;;;;;;7.03;4.32;;;14.40;99.90;;;;;;5008294;28;20117;-77
2022/09/12 01:05:30;;;;;;;5.70;4.28;;;14.60;99.90;;;;;;5015594;28;20065;-77
2022/09/12 01:08:00;;;;;;;8.13;4.47;;;14.40;99.90;;;;;;5014932;28;20050;-78
2022/09/12 01:10:25;;;;;;;5.93;4.38;;;14.30;99.90;;;;;;4999690;28;20037;-77
2022/09/12 01:12:51;;;;;;;5.35;4.22;;;14.70;99.90;;;;;;5027148;28;21348;-77
2022/09/12 01:15:17;;;;;;;5.90;4.43;;;14.30;99.90;;;;;;5023180;28;20049;-77
2022/09/12 01:17:59;;;;;;;5.78;4.35;;;14.30;99.90;;;;;;5020407;28;20034;-77
2022/09/12 01:20:49;;;;;;;7.32;5.03;;;14.70;99.90;;;;;;5021719;28;20037;-77
2022/09/12 01:23:24;;;;;;;9.75;5.38;;;14.30;99.90;;;;;;5012481;28;20042;-77
2022/09/12 01:26:11;;;;;;;8.25;6.43;;;14.20;99.90;;;;;;5001666;28;20041;-78
2022/09/12 01:29:14;;;;;;;9.73;6.22;;;14.20;99.90;;;;;;5004054;28;20052;-77
2022/09/12 01:32:07;;;;;;;8.35;6.25;;;14.20;99.90;;;;;;5016620;28;20073;-78
2022/09/12 01:35:00;;;;;;;9.38;7.30;;;14.20;99.90;;;;;;5011950;28;20048;-77
2022/09/12 01:37:44;;;;;;;13.32;9.25;;;14.20;99.90;;;;;;5023115;28;20041;-77
2022/09/12 01:40:29;;;;;;;13.75;10.45;;;14.30;99.90;;;;;;5018262;28;20057;-77
2022/09/12 01:43:07;;;;;;;16.25;11.93;;;14.20;99.90;;;;;;5025503;28;20038;-77
2022/09/12 01:45:51;;;;;;;17.27;11.68;;;14.20;99.90;;;;;;5025066;28;20038;-77
2022/09/12 01:48:31;;;;;;;15.85;12.15;;;14.20;99.90;;;;;;5035037;28;20041;-77
2022/09/12 01:51:22;;;;;;;13.23;11.82;;;14.80;99.90;;;;;;5014913;28;20073;-77
2022/09/12 01:53:54;;;;;;;15.55;12.70;;;14.20;99.90;;;;;;5022416;28;20096;-77
2022/09/12 01:56:29;;;;;;;16.80;12.60;;;14.20;99.90;;;;;;5020262;28;20121;-77
2022/09/12 01:59:09;;;;;;;16.95;13.38;;;14.20;99.90;;;;;;4998816;28;20399;-77
2022/09/12 02:01:40;;;;;;;20.92;14.88;;;14.80;99.90;;;;;;5020992;28;20507;-77
2022/09/12 02:04:38;;;;;;;19.20;15.68;;;14.20;99.90;;;;;;5020302;28;20495;-77
2022/09/12 02:07:19;;;;;;;22.65;17.50;;;14.20;99.90;;;;;;5015703;28;20083;-78
2022/09/12 02:09:58;;;;;;;24.73;18.55;;;14.20;99.90;;;;;;5020258;28;20038;-78
2022/09/12 02:12:35;;;;;;;26.23;19.08;;;14.20;99.90;;;;;;5011905;28;20034;-78
2022/09/12 02:15:06;;;;;;;28.63;20.35;;;14.20;99.90;;;;;;4988349;28;20038;-78
2022/09/12 02:17:38;;;;;;;25.65;18.88;;;14.20;99.90;;;;;;5013764;28;20033;-78
2022/09/12 02:20:15;;;;;;;25.27;20.25;;;14.30;99.90;;;;;;5011544;28;20030;-78
2022/09/12 02:22:43;;;;;;;27.25;20.05;;;14.80;99.90;;;;;;5021421;28;20464;-77
2022/09/12 02:25:13;;;;;;;28.38;20.65;;;14.30;99.90;;;;;;5024881;28;20038;-77
2022/09/12 02:28:05;;;;;;;23.75;18.35;;;14.30;99.90;;;;;;5029197;28;20030;-78
2022/09/12 02:30:40;;;;;;;25.77;19.40;;;14.30;99.90;;;;;;5013836;28;20403;-78
2022/09/12 02:33:35;;;;;;;27.42;20.70;;;14.40;99.90;;;;;;5011930;28;20617;-77
2022/09/12 02:36:13;;;;;;;26.63;19.70;;;14.40;99.90;;;;;;4984428;28;20041;-77
2022/09/12 02:38:48;;;;;;;27.90;21.27;;;14.30;99.90;;;;;;5019920;28;20061;-77
2022/09/12 02:41:18;;;;;;;28.52;19.42;;;14.60;99.90;;;;;;5021839;28;20041;-78
2022/09/12 02:43:44;;;;;;;27.75;20.30;;;14.40;99.90;;;;;;5032510;28;20030;-78
2022/09/12 02:46:22;;;;;;;25.25;19.05;;;14.70;99.90;;;;;;5022865;28;20049;-77
2022/09/12 02:48:50;;;;;;;25.45;19.35;;;14.40;99.90;;;;;;5010101;28;20496;-77
2022/09/12 02:51:16;;;;;;;26.30;19.25;;;14.60;99.90;;;;;;5030250;28;20323;-78
2022/09/12 02:53:42;;;;;;;26.48;19.55;;;14.50;99.90;;;;;;5025504;28;20030;-78
2022/09/12 02:56:36;;;;;;;25.30;18.38;;;14.40;99.90;;;;;;5016796;28;20411;-78
2022/09/12 02:59:08;;;;;;;25.58;19.20;;;14.40;99.90;;;;;;5018675;28;20766;-78
2022/09/12 03:01:43;;;;;;;25.85;18.95;;;14.40;99.90;;;;;;5014839;28;20045;-78
2022/09/12 03:04:16;;;;;;;26.17;19.77;;;14.30;99.90;;;;;;5010213;28;20061;-78
2022/09/12 03:06:50;;;;;;;26.75;19.83;;;14.40;99.90;;;;;;5016172;28;20037;-78
2022/09/12 03:09:27;;;;;;;25.75;18.08;;;14.70;99.90;;;;;;5022300;28;20041;-78
2022/09/12 03:12:31;;;;;;;26.23;18.92;;;14.40;99.90;;;;;;5001978;28;20108;-78
2022/09/12 03:15:02;;;;;;;25.83;18.67;;;14.30;99.90;;;;;;4999108;28;20049;-78
2022/09/12 03:17:50;;;;;;;22.92;17.48;;;14.30;99.90;;;;;;5004842;28;20382;-78
2022/09/12 03:20:16;;;;;;;24.15;18.13;;;14.30;99.90;;;;;;5024201;28;20104;-78
2022/09/12 03:22:55;;;;;;;23.23;17.70;;;14.30;99.90;;;;;;5019049;28;20034;-78
2022/09/12 03:25:39;;;;;;;24.48;17.17;;;14.20;99.90;;;;;;5008191;28;20037;-78
2022/09/12 03:28:16;;;;;;;24.02;17.23;;;14.90;99.90;;;;;;4995716;28;20041;-78
2022/09/12 03:30:46;;;;;;;26.58;18.45;;;14.30;99.90;;;;;;5016173;28;20045;-78
2022/09/12 03:33:22;;;;;;;23.42;17.85;;;14.30;99.90;;;;;;5006832;28;20079;-78
2022/09/12 03:35:48;;;;;;;22.50;17.38;;;14.50;99.90;;;;;;5017359;28;20069;-78
2022/09/12 03:38:14;;;;;;;20.88;15.35;;;14.40;99.90;;;;;;5023181;28;20038;-77
2022/09/12 03:40:42;;;;;;;20.63;15.38;;;14.10;99.90;;;;;;4999187;28;20042;-77
2022/09/12 03:43:08;;;;;;;19.55;14.75;;;14.50;99.90;;;;;;5001534;28;20038;-78
2022/09/12 03:45:36;;;;;;;21.13;15.65;;;14.10;99.90;;;;;;5027017;28;20116;-77
2022/09/12 03:48:03;;;;;;;22.65;15.75;;;14.40;99.90;;;;;;5028078;28;20088;-77
2022/09/12 03:50:29;;;;;;;18.95;15.10;;;14.00;99.90;;;;;;5022953;28;20085;-77
2022/09/12 03:52:57;;;;;;;20.38;15.32;;;14.00;99.90;;;;;;5019648;28;20037;-77
2022/09/12 03:55:25;;;;;;;21.63;15.43;;;13.90;99.90;;;;;;5021295;28;20037;-77
2022/09/12 03:57:53;;;;;;;22.55;16.23;;;14.10;99.90;;;;;;5021418;28;20196;-77
2022/09/12 04:00:19;;;;;;;21.05;16.25;;;14.00;99.90;;;;;;5022167;28;20021;-77
2022/09/12 04:02:45;;;;;;;20.05;15.98;;;14.00;99.90;;;;;;5018501;28;20060;-77
2022/09/12 04:05:13;;;;;;;22.77;16.35;;;14.20;99.90;;;;;;5037267;28;20068;-77
2022/09/12 04:07:39;;;;;;;22.88;17.70;;;13.90;99.90;;;;;;5020897;28;20152;-77
2022/09/12 04:10:05;;;;;;;24.85;18.25;;;13.90;99.90;;;;;;5030291;28;20037;-75
2022/09/12 04:12:34;;;;;;;26.60;18.73;;;13.90;99.90;;;;;;5023808;28;20038;-77
2022/09/12 04:15:01;;;;;;;23.35;18.08;;;14.30;99.90;;;;;;5016841;28;20466;-77
2022/09/12 04:17:28;;;;;;;24.02;18.13;;;13.90;99.90;;;;;;5018481;28;20098;-78
2022/09/12 04:20:00;;;;;;;22.05;17.73;;;13.90;99.90;;;;;;4994475;28;20038;-79
2022/09/12 04:22:26;;;;;;;22.73;18.15;;;13.80;99.90;;;;;;5015561;28;20084;-78
2022/09/12 04:24:52;;;;;;;24.35;18.90;;;13.80;99.90;;;;;;5015717;28;20496;-78
2022/09/12 04:27:17;;;;;;;26.05;18.98;;;14.30;99.90;;;;;;5014250;28;20076;-79
2022/09/12 04:29:43;;;;;;;26.42;19.52;;;13.90;99.90;;;;;;5009913;28;20403;-78
2022/09/12 04:32:10;;;;;;;25.73;19.10;;;14.00;99.90;;;;;;5023402;28;20491;-77
2022/09/12 04:34:38;;;;;;;26.20;19.08;;;14.30;99.90;;;;;;5021358;28;20079;-78
2022/09/12 04:37:10;;;;;;;26.05;19.10;;;13.80;99.90;;;;;;5024074;28;20053;-79
2022/09/12 04:39:36;;;;;;;26.55;20.27;;;14.00;99.90;;;;;;5035425;28;20038;-78
2022/09/12 04:42:03;;;;;;;28.80;21.27;;;14.40;99.90;;;;;;5034319;28;20109;-79
2022/09/12 04:44:30;;;;;;;31.27;22.05;;;13.90;99.90;;;;;;5009994;28;20223;-78
2022/09/12 04:46:59;;;;;;;28.75;21.52;;;14.30;99.90;;;;;;5018746;28;20069;-77
2022/09/12 04:49:25;;;;;;;30.13;21.40;;;13.90;99.90;;;;;;5020185;28;20077;-77
2022/09/12 04:51:54;;;;;;;31.05;22.17;;;14.40;99.90;;;;;;5022425;28;20077;-77
2022/09/12 04:54:19;;;;;;;30.88;21.92;;;14.00;99.90;;;;;;5028489;28;20038;-77
2022/09/12 04:56:48;;;;;;;30.60;23.23;;;14.00;99.90;;;;;;5032004;28;20041;-75
2022/09/12 04:59:18;;;;;;;29.85;21.85;;;14.00;99.90;;;;;;5010865;28;20045;-78
2022/09/12 05:01:45;;;;;;;31.30;21.75;;;13.90;99.90;;;;;;5006048;28;20455;-77
2022/09/12 05:04:12;;;;;;;32.72;22.83;;;14.40;99.90;;;;;;5020788;28;20049;-77
2022/09/12 05:06:39;;;;;;;29.92;21.80;;;14.00;99.90;;;;;;5012840;28;20045;-77
2022/09/12 05:09:14;;;;;;;32.58;22.85;;;14.00;99.90;;;;;;5018803;28;20037;-77
2022/09/12 05:11:42;;;;;;;34.20;23.27;;;14.00;99.90;;;;;;4988648;28;20407;-78
2022/09/12 05:14:08;;;;;;;34.17;23.85;;;14.00;99.90;;;;;;5008659;28;20041;-78
2022/09/12 05:16:34;;;;;;;37.08;23.90;;;14.00;99.90;;;;;;5010661;28;20073;-77
2022/09/12 05:19:00;;;;;;;33.50;23.85;;;14.00;99.90;;;;;;5027078;28;20485;-77
2022/09/12 05:21:26;;;;;;;34.22;23.65;;;14.40;99.90;;;;;;5003996;28;20056;-78
2022/09/12 05:23:53;;;;;;;37.83;25.73;;;14.10;99.90;;;;;;5001758;28;20041;-78
2022/09/12 05:26:20;;;;;;;38.00;25.88;;;14.50;99.90;;;;;;5010301;28;20048;-78
2022/09/12 05:28:48;;;;;;;35.47;25.35;;;14.10;99.90;;;;;;5010664;28;20034;-77
2022/09/12 05:31:13;;;;;;;37.67;25.90;;;14.10;99.90;;;;;;5012392;28;20046;-77
2022/09/12 05:33:41;;;;;;;37.38;25.08;;;14.20;99.90;;;;;;5008474;28;20056;-77
2022/09/12 05:36:11;;;;;;;38.60;25.88;;;14.70;99.90;;;;;;5014528;28;20038;-77
2022/09/12 05:38:40;;;;;;;37.33;25.23;;;14.80;99.90;;;;;;5017752;28;20050;-78
2022/09/12 05:41:09;;;;;;;37.10;25.92;;;14.20;99.90;;;;;;5017167;28;20034;-77
2022/09/12 05:43:40;;;;;;;41.17;26.20;;;14.20;99.90;;;;;;5017661;28;20376;-78
2022/09/12 05:46:18;;;;;;;43.90;27.67;;;14.30;99.90;;;;;;5014443;28;20042;-76
2022/09/12 05:48:46;;;;;;;39.72;26.85;;;14.70;99.90;;;;;;5014109;28;20057;-77
2022/09/12 05:51:30;;;;;;;39.28;27.67;;;14.40;99.90;;;;;;5003346;28;20442;-77
2022/09/12 05:54:02;;;;;;;39.40;27.33;;;14.30;99.90;;;;;;4999055;28;20033;-78
2022/09/12 05:56:29;;;;;;;41.20;27.50;;;14.80;99.90;;;;;;5020960;28;20424;-77
2022/09/12 05:59:02;;;;;;;40.80;28.42;;;14.40;99.90;;;;;;4989892;28;20579;-77
2022/09/12 06:01:29;;;;;;;43.08;27.83;;;14.40;99.90;;;;;;4992811;28;20496;-77
2022/09/12 06:03:59;;;;;;;40.55;26.65;;;14.90;99.90;;;;;;5015727;28;20050;-78
2022/09/12 06:06:28;;;;;;;42.15;27.45;;;14.70;99.90;;;;;;5023451;28;20411;-76
2022/09/12 06:09:02;;;;;;;40.60;27.75;;;14.50;99.90;;;;;;5018370;28;20038;-77
2022/09/12 06:11:36;;;;;;;40.58;28.33;;;14.60;99.90;;;;;;5023277;28;20049;-77
2022/09/12 06:14:02;;;;;;;44.67;28.42;;;14.70;99.90;;;;;;5011962;28;20046;-77
2022/09/12 06:16:30;;;;;;;40.47;28.45;;;14.60;99.90;;;;;;5003167;28;20045;-77
2022/09/12 06:19:17;;;;;;;39.72;27.60;;;14.60;99.90;;;;;;5017849;28;20179;-77
2022/09/12 06:21:44;;;;;;;44.15;29.05;;;14.70;99.90;;;;;;5024356;28;20044;-77
2022/09/12 06:24:11;;;;;;;43.08;28.60;;;14.90;99.90;;;;;;5006495;28;20480;-77
2022/09/12 06:26:36;;;;;;;42.63;27.63;;;14.70;99.90;;;;;;5024761;28;20057;-76
2022/09/12 06:29:18;;;;;;;41.47;27.52;;;14.70;99.90;;;;;;5016842;28;20038;-76
2022/09/12 06:31:44;;;;;;;41.75;27.83;;;14.80;99.90;;;;;;5000466;28;20034;-76
2022/09/12 06:34:12;;;;;;;42.72;27.98;;;14.80;99.90;;;;;;5033479;28;20030;-77
2022/09/12 06:36:49;;;;;;;44.20;28.08;;;14.80;99.90;;;;;;5019738;28;20045;-77
2022/09/12 06:39:22;;;;;;;42.58;28.33;;;14.80;99.90;;;;;;4999167;28;20088;-77
2022/09/12 06:41:51;;;;;;;43.30;27.05;;;14.90;99.90;;;;;;5003526;28;20034;-77
2022/09/12 06:44:22;;;;;;;39.28;27.65;;;14.90;99.90;;;;;;5001489;28;20388;-77
2022/09/12 06:46:52;;;;;;;39.30;26.73;;;15.00;99.90;;;;;;4998756;28;20508;-77
2022/09/12 06:49:21;;;;;;;40.55;26.15;;;15.00;99.90;;;;;;5018754;28;20104;-77
2022/09/12 06:51:47;;;;;;;38.92;27.75;;;15.00;99.90;;;;;;5001773;28;20068;-77
2022/09/12 06:54:15;;;;;;;39.38;27.80;;;15.10;99.90;;;;;;5015531;28;20038;-77
2022/09/12 06:56:41;;;;;;;42.00;28.10;;;15.00;99.90;;;;;;4999124;28;20042;-78
2022/09/12 06:59:07;;;;;;;41.15;28.25;;;15.50;99.90;;;;;;5009848;28;20036;-78
2022/09/12 07:01:36;;;;;;;41.72;28.38;;;15.10;99.90;;;;;;4996531;28;20077;-77
2022/09/12 07:04:03;;;;;;;40.33;27.98;;;15.10;99.90;;;;;;5009695;28;20448;-78
2022/09/12 07:06:43;;;;;;;40.75;27.65;;;15.20;99.90;;;;;;4997633;28;20045;-78
2022/09/12 07:09:12;;;;;;;41.30;27.38;;;15.20;99.90;;;;;;4991070;28;20038;-78
2022/09/12 07:11:40;;;;;;;42.22;27.27;;;15.20;99.90;;;;;;4997639;28;20042;-78
2022/09/12 07:14:07;;;;;;;41.85;27.67;;;15.30;99.90;;;;;;5013644;28;20152;-77
2022/09/12 07:16:36;;;;;;;40.42;27.10;;;15.30;99.90;;;;;;4995011;28;20045;-77
2022/09/12 07:19:06;;;;;;;43.67;28.15;;;15.50;99.90;;;;;;5015630;28;20030;-78
2022/09/12 07:21:32;;;;;;;40.08;27.17;;;15.30;99.90;;;;;;5014024;28;20531;-77
2022/09/12 07:23:57;;;;;;;43.53;28.02;;;15.30;99.90;;;;;;5014169;28;20382;-77
2022/09/12 07:26:25;;;;;;;41.08;28.52;;;15.40;99.90;;;;;;5013398;28;20048;-78
2022/09/12 07:28:53;;;;;;;42.60;27.98;;;15.40;99.90;;;;;;4995982;28;20045;-78
2022/09/12 07:31:21;;;;;;;40.78;28.83;;;15.50;99.90;;;;;;4995392;28;20053;-78
2022/09/12 07:33:50;;;;;;;42.28;27.83;;;15.50;99.90;;;;;;4995111;28;20132;-75
2022/09/12 07:36:24;;;;;;;43.83;28.75;;;15.50;99.90;;;;;;5012070;28;20038;-77
2022/09/12 07:38:55;;;;;;;42.78;26.48;;;15.60;99.90;;;;;;5011682;28;20500;-77
2022/09/12 07:41:23;;;;;;;43.55;28.20;;;15.60;99.90;;;;;;5012135;28;20042;-77
2022/09/12 07:43:59;;;;;;;44.33;27.50;;;15.60;99.90;;;;;;5018776;28;20393;-79
2022/09/12 07:46:25;;;;;;;43.05;27.88;;;15.70;99.90;;;;;;5015329;28;20077;-78
2022/09/12 07:48:54;;;;;;;42.38;27.63;;;15.70;99.90;;;;;;4997453;28;20504;-78
2022/09/12 07:51:22;;;;;;;50.60;27.73;;;15.80;99.90;;;;;;5017157;28;20122;-78
2022/09/12 07:53:48;;;;;;;46.38;29.50;;;15.90;99.90;;;;;;5013415;28;20096;-78
2022/09/12 07:56:15;;;;;;;42.03;27.23;;;16.10;99.90;;;;;;5017860;28;20131;-78
2022/09/12 07:58:41;;;;;;;47.17;30.52;;;16.00;99.90;;;;;;5014250;28;20065;-78
2022/09/12 08:01:11;;;;;;;43.80;28.10;;;16.10;99.90;;;;;;5016834;28;20060;-78
2022/09/12 08:03:37;;;;;;;45.05;27.35;;;16.00;99.90;;;;;;5017732;28;20076;-79
2022/09/12 08:06:09;;;;;;;44.17;29.17;;;16.10;99.90;;;;;;5010426;28;20061;-78
2022/09/12 08:08:43;;;;;;;48.40;31.35;;;16.10;99.90;;;;;;5018114;28;20053;-78
2022/09/12 08:11:13;;;;;;;52.85;30.17;;;16.10;99.90;;;;;;5017567;28;20124;-78
2022/09/12 08:13:43;;;;;;;48.53;29.73;;;16.20;99.90;;;;;;5021699;28;20037;-78
2022/09/12 08:16:14;;;;;;;52.13;31.60;;;16.50;99.90;;;;;;5018079;28;20088;-78
2022/09/12 08:18:40;;;;;;;53.80;32.27;;;16.60;99.90;;;;;;4996071;28;20044;-77
2022/09/12 08:21:24;;;;;;;54.03;34.65;;;16.40;99.90;;;;;;5020717;28;20279;-77
2022/09/12 08:23:54;;;;;;;53.83;32.05;;;16.40;99.90;;;;;;4997495;28;20057;-77
2022/09/12 08:26:20;;;;;;;51.05;33.47;;;16.50;99.90;;;;;;5001357;28;20534;-77
2022/09/12 08:28:46;;;;;;;55.05;32.75;;;16.50;99.90;;;;;;5014211;28;20113;-78
2022/09/12 08:31:14;;;;;;;59.95;33.38;;;16.60;99.90;;;;;;5017937;28;20552;-77
2022/09/12 08:33:49;;;;;;;54.00;32.50;;;16.70;99.90;;;;;;4996985;28;20041;-77
2022/09/12 08:36:18;;;;;;;52.20;32.37;;;16.70;99.90;;;;;;5008391;28;20041;-78
2022/09/12 08:38:50;;;;;;;52.28;31.52;;;16.70;99.90;;;;;;5007964;28;20533;-77
2022/09/12 08:41:42;;;;;;;51.08;32.10;;;16.80;99.90;;;;;;5023156;28;20030;-78
2022/09/12 08:44:27;;;;;;;;;;;16.90;99.90;;;;;;5010187;28;20046;-78
2022/09/12 08:47:08;;;;;;;48.85;31.58;;;16.90;99.90;;;;;;5015933;28;19927;-78
2022/09/12 08:49:52;;;;;;;48.33;31.10;;;17.00;99.90;;;;;;5012056;28;20046;-78
2022/09/12 08:52:37;;;;;;;49.30;31.65;;;17.10;99.90;;;;;;5021303;28;20040;-78
2022/09/12 08:55:05;;;;;;;43.50;30.35;;;17.20;99.90;;;;;;5014074;28;20038;-78
2022/09/12 08:57:32;;;;;;;43.00;29.30;;;17.30;99.90;;;;;;5012438;28;20038;-77
2022/09/12 09:00:05;;;;;;;46.63;29.58;;;17.40;99.90;;;;;;4987940;28;20034;-77
2022/09/12 09:03:01;;;;;;;46.47;29.58;;;17.40;99.90;;;;;;4997419;28;20157;-77
2022/09/12 09:05:36;;;;;;;51.38;30.10;;;17.50;99.90;;;;;;5019296;28;20042;-78
2022/09/12 09:08:40;;;;;;;41.42;28.42;;;17.70;99.90;;;;;;5009676;28;20514;-78
2022/09/12 09:11:40;;;;;;;46.10;29.35;;;17.70;99.90;;;;;;5011966;28;20054;-78
2022/09/12 09:17:24;;;;;;;46.38;28.92;;;17.90;99.90;;;;;;5009461;28;20121;-79
2022/09/12 09:19:57;;;;;;;46.08;28.83;;;18.00;99.90;;;;;;5010516;28;20038;-78
2022/09/12 09:22:54;;;;;;;44.58;29.55;;;18.10;99.90;;;;;;5014092;28;20524;-79
2022/09/12 09:25:39;;;;;;;42.25;28.67;;;18.20;99.90;;;;;;5012966;28;20056;-78
2022/09/12 09:28:31;;;;;;;39.78;27.38;;;18.30;99.90;;;;;;5024618;28;20115;-77
2022/09/12 09:30:57;;;;;;;44.00;28.33;;;18.30;99.90;;;;;;4991250;28;20046;-78
2022/09/12 09:33:33;;;;;;;40.80;27.60;;;18.50;99.90;;;;;;4994079;28;20038;-78
2022/09/12 09:36:03;;;;;;;42.47;27.08;;;18.70;99.90;;;;;;5018921;28;20044;-77
2022/09/12 09:38:45;;;;;;;41.55;27.48;;;18.80;99.90;;;;;;5015510;28;20076;-77
2022/09/12 09:41:46;;;;;;;39.77;27.10;;;19.00;99.90;;;;;;5015934;28;20037;-77
2022/09/12 09:44:12;;;;;;;39.78;26.13;;;19.20;99.90;;;;;;4973211;28;20092;-78
2022/09/12 09:46:38;;;;;;;42.90;27.05;;;19.30;99.90;;;;;;5012188;28;20072;-78
2022/09/12 09:49:08;;;;;;;37.40;25.02;;;19.40;99.90;;;;;;4999103;28;20661;-78
2022/09/12 09:51:38;;;;;;;36.88;25.60;;;19.40;99.90;;;;;;5002491;28;20506;-78
2022/09/12 09:54:25;;;;;;;35.88;25.35;;;19.40;99.90;;;;;;4994326;28;20387;-78
2022/09/12 09:56:55;;;;;;;43.13;26.88;;;19.40;99.90;;;;;;5006134;28;20396;-78
2022/09/12 09:59:32;;;;;;;42.72;27.63;;;19.40;99.90;;;;;;5024252;28;20048;-78
2022/09/12 10:02:13;;;;;;;39.50;26.80;;;19.30;99.90;;;;;;5023167;28;20066;-78
2022/09/12 10:04:53;;;;;;;38.85;26.20;;;19.60;99.90;;;;;;5027481;28;20041;-78
2022/09/12 10:07:20;;;;;;;38.03;26.35;;;19.70;99.90;;;;;;5019128;28;20037;-78
2022/09/12 10:10:25;;;;;;;38.17;26.70;;;19.90;99.90;;;;;;5020814;28;20037;-78
2022/09/12 10:13:16;;;;;;;35.03;25.33;;;20.10;99.90;;;;;;4969437;28;20464;-78
2022/09/12 10:15:56;;;;;;;35.63;25.17;;;20.40;99.90;;;;;;4969560;28;20097;-78
2022/09/12 10:18:51;;;;;;;35.67;23.98;;;20.60;99.90;;;;;;5019026;28;20606;-79
2022/09/12 10:21:44;;;;;;;37.35;25.27;;;20.60;99.90;;;;;;5021063;28;20033;-78
2022/09/12 10:24:24;;;;;;;32.40;23.52;;;20.70;99.90;;;;;;5019011;28;20111;-78
2022/09/12 10:26:57;;;;;;;34.10;25.02;;;20.90;99.90;;;;;;4995458;28;20072;-78
2022/09/12 10:29:29;;;;;;;32.08;23.48;;;21.00;99.90;;;;;;5011918;28;20101;-78
2022/09/12 10:32:01;;;;;;;31.73;24.52;;;21.10;99.90;;;;;;4999377;28;20041;-79
2022/09/12 10:34:42;;;;;;;34.60;24.50;;;21.20;99.90;;;;;;5002976;28;20030;-78
2022/09/12 10:37:14;;;;;;;35.70;23.45;;;21.30;99.90;;;;;;5015899;28;20088;-78
2022/09/12 10:39:48;;;;;;;31.77;22.08;;;21.40;99.90;;;;;;5014486;28;20045;-78
2022/09/12 10:42:14;;;;;;;32.25;21.85;;;21.60;99.90;;;;;;5013763;28;20042;-78
2022/09/12 10:44:52;;;;;;;31.98;22.80;;;21.70;99.90;;;;;;5013286;28;20038;-78
2022/09/12 10:47:21;;;;;;;31.42;22.40;;;21.80;99.90;;;;;;4992227;28;20037;-78
2022/09/12 10:49:46;;;;;;;32.53;22.63;;;21.90;99.90;;;;;;5019562;28;20034;-78
2022/09/12 10:52:27;;;;;;;27.75;21.17;;;22.00;99.90;;;;;;5017383;28;20053;-78
2022/09/12 10:54:53;;;;;;;26.70;20.05;;;22.00;99.90;;;;;;5021040;28;20034;-78
2022/09/12 10:57:54;;;;;;;26.35;19.35;;;22.10;99.90;;;;;;5005604;28;20046;-78
2022/09/12 11:00:26;;;;;;;25.38;18.63;;;22.20;99.90;;;;;;5009540;28;20034;-78
2022/09/12 11:03:15;;;;;;;21.15;15.45;;;22.30;99.90;;;;;;4997418;28;20522;-78
2022/09/12 11:06:00;;;;;;;22.42;15.50;;;22.40;99.90;;;;;;5020305;28;20076;-78
2022/09/12 11:08:41;;;;;;;21.98;15.52;;;22.50;99.90;;;;;;5018925;28;20105;-78
2022/09/12 11:11:42;;;;;;;19.23;14.63;;;22.60;99.90;;;;;;5019180;28;20061;-78
2022/09/12 11:14:31;;;;;;;22.02;16.05;;;22.60;99.90;;;;;;5013753;28;20084;-78
2022/09/12 11:17:15;;;;;;;22.10;15.82;;;22.60;99.90;;;;;;5030931;28;20095;-78
2022/09/12 11:19:53;;;;;;;19.50;13.90;;;22.70;99.90;;;;;;5014240;28;20426;-78
2022/09/12 11:22:43;;;;;;;17.17;12.50;;;22.80;99.90;;;;;;4996155;28;20060;-78
2022/09/12 11:25:22;;;;;;;19.92;14.88;;;22.90;99.90;;;;;;4997041;28;20495;-79
2022/09/12 11:28:27;;;;;;;16.73;13.18;;;23.00;99.90;;;;;;5032273;28;20411;-79
2022/09/12 11:31:11;;;;;;;17.90;13.50;;;22.90;99.90;;;;;;4987093;28;20045;-79
2022/09/12 11:33:46;;;;;;;14.48;11.25;;;22.90;99.80;;;;;;5016325;28;20100;-80
2022/09/12 11:36:33;;;;;;;14.40;10.60;;;22.80;99.40;;;;;;5007719;28;20065;-79
2022/09/12 11:39:20;;;;;;;14.48;11.55;;;22.80;98.30;;;;;;5013621;28;20373;-79
2022/09/12 11:41:57;;;;;;;16.20;10.98;;;22.70;98.90;;;;;;4996964;28;20099;-79
2022/09/12 11:44:29;;;;;;;14.40;10.57;;;22.70;98.50;;;;;;5012880;28;20080;-79
2022/09/12 11:46:57;;;;;;;13.48;9.75;;;22.70;98.20;;;;;;4996765;28;20042;-79
2022/09/12 11:49:35;;;;;;;14.35;11.20;;;22.70;98.10;;;;;;5019620;28;20046;-79
2022/09/12 11:52:21;;;;;;;14.15;10.55;;;22.70;97.20;;;;;;5015421;28;20373;-79
2022/09/12 11:55:10;;;;;;;14.38;10.70;;;22.80;97.80;;;;;;5021608;28;20072;-79
2022/09/12 11:57:45;;;;;;;15.25;10.68;;;23.00;97.90;;;;;;5009086;28;20488;-79
2022/09/12 12:00:29;;;;;;;11.65;8.52;;;23.00;98.00;;;;;;5012938;28;20045;-79
2022/09/12 12:03:08;;;;;;;11.68;8.30;;;23.10;96.90;;;;;;5019283;28;20560;-79
2022/09/12 12:05:49;;;;;;;10.57;7.97;;;23.10;96.50;;;;;;5010841;28;20076;-79
2022/09/12 12:08:15;;;;;;;11.98;8.48;;;23.20;95.70;;;;;;5008192;28;20406;-79
2022/09/12 12:10:49;;;;;;;12.75;8.30;;;23.10;96.10;;;;;;5015231;28;20034;-79
2022/09/12 12:13:21;;;;;;;11.23;7.50;;;23.20;95.70;;;;;;4996013;28;20041;-79
2022/09/12 12:15:54;;;;;;;12.07;8.90;;;23.10;95.80;;;;;;5007087;28;20045;-79
2022/09/12 12:18:26;;;;;;;10.77;8.27;;;23.20;96.20;;;;;;4994764;28;20050;-79
2022/09/12 12:20:54;;;;;;;13.70;11.27;;;23.30;96.40;;;;;;5025134;28;20499;-79
2022/09/12 12:23:40;;;;;;;14.75;12.02;;;23.20;96.10;;;;;;5020324;28;20034;-79
2022/09/12 12:26:37;;;;;;;11.45;9.23;;;23.20;96.20;;;;;;5009756;28;20057;-79
2022/09/12 12:29:08;;;;;;;13.15;9.90;;;23.20;96.50;;;;;;5016189;28;20042;-79
2022/09/12 12:32:02;;;;;;;11.93;9.80;;;23.30;96.40;;;;;;5018635;28;20042;-79
2022/09/12 12:34:39;;;;;;;13.20;9.25;;;23.30;96.00;;;;;;5011825;28;20052;-79
2022/09/12 12:37:20;;;;;;;11.20;8.65;;;23.30;96.20;;;;;;5006746;28;20126;-79
2022/09/12 12:39:49;;;;;;;14.82;9.77;;;23.30;95.90;;;;;;5012831;28;20038;-78
2022/09/12 12:42:33;;;;;;;14.55;10.13;;;23.40;95.70;;;;;;5012752;28;20092;-78
2022/09/12 12:44:59;;;;;;;12.23;10.00;;;23.50;95.90;;;;;;5002757;28;20045;-78
2022/09/12 12:47:31;;;;;;;12.80;9.00;;;23.60;95.50;;;;;;5012151;28;20057;-78
2022/09/12 12:49:58;;;;;;;;;;;23.60;94.80;;;;;;5014075;28;20044;-78
2022/09/12 12:52:27;;;;;;;13.98;9.73;;;23.60;94.20;;;;;;5021683;28;19928;-78
2022/09/12 12:54:59;;;;;;;11.57;8.05;;;23.60;95.00;;;;;;5020516;28;20050;-79
2022/09/12 12:57:55;;;;;;;12.45;8.45;;;23.60;95.00;;;;;;5023122;28;20050;-79
2022/09/12 13:00:34;;;;;;;10.95;8.57;;;23.70;94.90;;;;;;5018766;28;20045;-78
2022/09/12 13:03:05;;;;;;;10.15;7.88;;;23.80;94.80;;;;;;4997463;28;20041;-79
2022/09/12 13:05:48;;;;;;;10.57;7.60;;;23.80;94.20;;;;;;4997428;28;20090;-78
2022/09/12 13:08:17;;;;;;;10.15;8.07;;;23.80;94.40;;;;;;5013170;28;20076;-79